Hyannis, Nebraska
Current Conditions -  °F | °C
As of 2:53 PM on Monday 22 Dec 2014 (Local Time) from KAIA Reporting Station
Few Clouds Few Clouds  
Wind Chill: 29°   Ceiling: Unl
Heat Index: 39°   Visibility: 10mi
Dew Point: 23°   Wind: 20mph
Humidity: 53%   Direction: 320°NW
Pressure: 29.59"   Gusts: NA
Location:  42°N, 101.76°W
Report Text: KAIA 222153Z AUTO 32017KT 10SM FEW050 04/M05 A2959 RMK AO2 PK WND 30030/2101 SLP025 T00391050
Loading
Personal Weather Stations






























Interactive Weather Map New forecast layout! Learn more

10-Day Weather Forecast

Advertisements
Track Severe Weather on mobile